Clement, Illinois
Current Conditions -  °F | °C
As of 1:15 PM on Friday 21 Nov 2014 (Local Time) from KENL Reporting Station
Clear Clear  
Wind Chill: 34°   Ceiling: Unl
Heat Index: 40°   Visibility: 10mi
Dew Point: 16°   Wind: 8mph
Humidity: 38%   Direction: 130°SE
Pressure: 30.37"   Gusts: NA
Location:  38.6036°N, 89.2916°W
Report Text: KENL 211915Z AUTO 13007KT 10SM CLR 04/M09 A3037 RMK AO2 T00431088
Loading
Personal Weather Stations






























Interactive Weather Map New forecast layout! Learn more

10-Day Weather Forecast

Advertisements
Track Severe Weather on mobile